Time;durP1;ratioP1;P1;durP2;ratioP2;P2;SDS_P1;SDS_P2;PMS_P1;PMS_P2;Temp;Humidity;BMP_temperature;BMP_pressure;BME280_temperature;BME280_humidity;BME280_pressure;Samples;Min_cycle;Max_cycle;Signal;HPM_P1;HPM_P2
2022/05/10 00:01:35;;;;;;;11.93;5.85;;;13.60;99.90;;;;;;5067597;28;20133;-60
2022/05/10 00:04:04;;;;;;;12.85;5.88;;;13.60;99.90;;;;;;5079661;28;20044;-60
2022/05/10 00:06:36;;;;;;;11.55;5.78;;;13.60;99.90;;;;;;5058810;28;20052;-60
2022/05/10 00:09:03;;;;;;;9.95;5.80;;;13.50;99.90;;;;;;5078571;28;20576;-61
2022/05/10 00:11:29;;;;;;;13.23;6.30;;;13.50;99.90;;;;;;5066774;28;20059;-57
2022/05/10 00:13:56;;;;;;;11.48;5.80;;;13.40;99.90;;;;;;5065022;28;20045;-57
2022/05/10 00:16:22;;;;;;;11.23;5.72;;;13.40;99.90;;;;;;5072869;28;20583;-58
2022/05/10 00:18:48;;;;;;;12.85;6.32;;;13.30;99.90;;;;;;5065403;28;20039;-60
2022/05/10 00:21:17;;;;;;;12.27;5.57;;;13.30;99.90;;;;;;5086016;28;20076;-61
2022/05/10 00:23:43;;;;;;;10.70;5.35;;;13.30;99.90;;;;;;5057783;28;20044;-60
2022/05/10 00:26:09;;;;;;;12.23;5.70;;;13.30;99.90;;;;;;5067182;28;20062;-61
2022/05/10 00:28:35;;;;;;;14.55;5.85;;;13.30;99.90;;;;;;5082685;28;20055;-60
2022/05/10 00:31:01;;;;;;;11.57;5.82;;;13.30;99.90;;;;;;5067980;28;20071;-60
2022/05/10 00:33:30;;;;;;;13.93;5.68;;;13.30;99.90;;;;;;5081514;28;20126;-60
2022/05/10 00:35:57;;;;;;;10.52;5.53;;;13.30;99.90;;;;;;5076495;28;20088;-57
2022/05/10 00:38:31;;;;;;;12.30;5.53;;;13.30;99.90;;;;;;5078119;28;20406;-58
2022/05/10 00:41:05;;;;;;;12.45;5.15;;;13.30;99.90;;;;;;5084988;28;20872;-58
2022/05/10 00:43:40;;;;;;;9.50;5.65;;;13.40;99.90;;;;;;5083872;28;20059;-58
2022/05/10 00:46:26;;;;;;;14.50;6.03;;;13.30;99.90;;;;;;5076910;28;20164;-58
2022/05/10 00:48:58;;;;;;;13.70;6.20;;;13.20;99.90;;;;;;5066450;28;20417;-57
2022/05/10 00:51:37;;;;;;;13.88;5.95;;;13.20;99.90;;;;;;5061366;28;20090;-57
2022/05/10 00:54:26;;;;;;;13.23;6.25;;;13.20;99.90;;;;;;5076245;28;20052;-57
2022/05/10 00:57:26;;;;;;;10.50;6.10;;;13.20;99.90;;;;;;5046275;28;20044;-58
2022/05/10 01:00:07;;;;;;;12.70;5.75;;;13.20;99.90;;;;;;5070608;28;20052;-58
2022/05/10 01:02:57;;;;;;;8.25;5.63;;;13.00;99.90;;;;;;5081852;28;20054;-60
2022/05/10 01:05:36;;;;;;;12.38;5.78;;;13.00;99.90;;;;;;5060517;28;20052;-60
2022/05/10 01:08:24;;;;;;;10.75;6.07;;;13.00;99.90;;;;;;5076338;28;20052;-60
2022/05/10 01:10:59;;;;;;;10.55;6.10;;;12.90;99.90;;;;;;5047775;28;20050;-60
2022/05/10 01:13:33;;;;;;;10.93;5.82;;;12.90;99.90;;;;;;5088445;28;20086;-60
2022/05/10 01:16:10;;;;;;;12.02;6.25;;;12.90;99.90;;;;;;5085723;28;20089;-60
2022/05/10 01:18:38;;;;;;;9.48;5.90;;;12.90;99.90;;;;;;5084512;28;20051;-60
2022/05/10 01:21:27;;;;;;;10.95;6.15;;;12.90;99.90;;;;;;5083358;28;20048;-58
2022/05/10 01:24:15;;;;;;;11.98;6.55;;;12.90;99.90;;;;;;5081303;28;20082;-58
2022/05/10 01:27:18;;;;;;;10.68;6.97;;;12.80;99.90;;;;;;5077535;28;20054;-58
2022/05/10 01:30:03;;;;;;;12.15;6.80;;;12.80;99.90;;;;;;5080284;28;20515;-57
2022/05/10 01:35:26;;;;;;;12.10;6.38;;;12.90;99.90;;;;;;5076826;28;20059;-58
2022/05/10 01:37:57;;;;;;;10.98;6.93;;;12.80;99.90;;;;;;5079040;28;20052;-58
2022/05/10 01:40:34;;;;;;;19.55;6.95;;;12.90;99.90;;;;;;5063816;28;20045;-57
2022/05/10 01:43:41;;;;;;;10.75;7.00;;;12.80;99.90;;;;;;5066181;28;20055;-57
2022/05/10 01:46:19;;;;;;;11.27;7.00;;;12.70;99.90;;;;;;5062773;28;20087;-57
2022/05/10 01:48:50;;;;;;;9.98;7.28;;;12.70;99.90;;;;;;5072277;28;20139;-57
2022/05/10 01:51:26;;;;;;;10.82;7.55;;;12.70;99.90;;;;;;5061649;28;20407;-56
2022/05/10 01:53:53;;;;;;;9.43;7.28;;;12.70;99.90;;;;;;5080993;28;20043;-57
2022/05/10 01:56:25;;;;;;;14.65;7.68;;;12.70;99.90;;;;;;5065465;28;20145;-57
2022/05/10 01:58:53;;;;;;;11.80;7.13;;;12.70;99.90;;;;;;5075271;28;20573;-57
2022/05/10 02:01:34;;;;;;;10.93;7.20;;;12.70;99.90;;;;;;5046283;28;20048;-60
2022/05/10 02:04:13;;;;;;;12.38;7.50;;;12.70;99.90;;;;;;5071740;28;20050;-60
2022/05/10 02:06:45;;;;;;;12.90;7.38;;;12.70;99.90;;;;;;5067333;28;20078;-60
2022/05/10 02:09:34;;;;;;;12.38;7.85;;;12.70;99.90;;;;;;5067476;28;20045;-60
2022/05/10 02:12:10;;;;;;;10.00;7.80;;;12.70;99.90;;;;;;5064679;28;20330;-57
2022/05/10 02:14:49;;;;;;;12.52;9.13;;;12.70;99.90;;;;;;5070143;28;20048;-57
2022/05/10 02:17:49;;;;;;;12.10;8.65;;;12.70;99.90;;;;;;5064981;28;20091;-57
2022/05/10 02:20:42;;;;;;;11.73;8.60;;;12.70;99.90;;;;;;5064541;28;20079;-58
2022/05/10 02:23:16;;;;;;;13.95;9.00;;;12.70;99.90;;;;;;5081721;28;20055;-60
2022/05/10 02:25:47;;;;;;;14.30;8.10;;;12.70;99.90;;;;;;5064884;28;20048;-60
2022/05/10 02:28:28;;;;;;;13.33;8.50;;;12.70;99.90;;;;;;5076628;28;20083;-57
2022/05/10 02:30:58;;;;;;;15.10;8.50;;;12.70;99.90;;;;;;5080096;28;20055;-60
2022/05/10 02:33:25;;;;;;;13.95;8.73;;;12.70;99.90;;;;;;5064989;28;20047;-56
2022/05/10 02:36:00;;;;;;;15.73;9.80;;;12.70;99.90;;;;;;5075338;28;20149;-57
2022/05/10 02:38:38;;;;;;;14.43;9.57;;;12.70;99.90;;;;;;5064006;28;20159;-60
2022/05/10 02:41:10;;;;;;;10.82;8.48;;;12.70;99.90;;;;;;5083085;28;20406;-59
2022/05/10 02:43:54;;;;;;;11.68;9.30;;;12.70;99.90;;;;;;5080808;28;20076;-59
2022/05/10 02:46:22;;;;;;;16.92;9.57;;;12.70;99.90;;;;;;5068245;28;20047;-57
2022/05/10 02:48:49;;;;;;;14.93;9.65;;;12.70;99.90;;;;;;5068804;28;20146;-57
2022/05/10 02:51:16;;;;;;;14.43;9.20;;;12.70;99.90;;;;;;5071432;28;20055;-57
2022/05/10 02:53:42;;;;;;;13.05;9.00;;;12.70;99.90;;;;;;5076694;28;20667;-57
2022/05/10 02:56:12;;;;;;;14.85;10.55;;;12.70;99.90;;;;;;5062499;28;20114;-57
2022/05/10 02:58:50;;;;;;;14.57;9.65;;;12.70;99.90;;;;;;5070127;28;20492;-57
2022/05/10 03:01:22;;;;;;;12.65;9.32;;;12.70;99.90;;;;;;5077725;28;20384;-59
2022/05/10 03:03:49;;;;;;;16.13;9.30;;;12.70;99.90;;;;;;5072978;28;20048;-61
2022/05/10 03:06:21;;;;;;;15.27;10.35;;;12.60;99.90;;;;;;5068358;28;20053;-57
2022/05/10 03:08:50;;;;;;;14.95;10.20;;;12.70;99.90;;;;;;5068822;28;20137;-59
2022/05/10 03:11:16;;;;;;;19.77;11.60;;;12.70;99.90;;;;;;5078509;28;20055;-60
2022/05/10 03:13:44;;;;;;;19.15;12.02;;;12.70;99.90;;;;;;5082930;28;20842;-59
2022/05/10 03:16:10;;;;;;;16.30;10.73;;;12.80;99.90;;;;;;5082229;28;20059;-59
2022/05/10 03:18:37;;;;;;;17.48;11.82;;;12.80;99.90;;;;;;5075679;28;20044;-59
2022/05/10 03:21:03;;;;;;;16.77;11.70;;;12.90;99.90;;;;;;5069610;28;20040;-59
2022/05/10 03:23:30;;;;;;;17.17;12.52;;;12.90;99.90;;;;;;5062542;28;20664;-59
2022/05/10 03:25:57;;;;;;;18.90;12.50;;;12.90;99.90;;;;;;5052773;28;20048;-59
2022/05/10 03:28:24;;;;;;;21.98;12.02;;;12.90;99.90;;;;;;5084898;28;20060;-59
2022/05/10 03:30:51;;;;;;;17.02;12.35;;;12.90;99.90;;;;;;5075938;28;20047;-59
2022/05/10 03:33:17;;;;;;;15.65;11.57;;;13.00;99.90;;;;;;5064414;28;20093;-59
2022/05/10 03:35:43;;;;;;;17.90;13.13;;;12.90;99.90;;;;;;5083434;28;20608;-59
2022/05/10 03:38:09;;;;;;;17.23;12.50;;;12.90;99.90;;;;;;5078092;28;20060;-59
2022/05/10 03:40:35;;;;;;;16.52;12.48;;;13.00;99.90;;;;;;5077341;28;20621;-59
2022/05/10 03:43:02;;;;;;;18.50;12.60;;;13.00;99.90;;;;;;5081022;28;20117;-60
2022/05/10 03:45:28;;;;;;;20.17;13.13;;;13.00;99.90;;;;;;5067647;28;20084;-59
2022/05/10 03:47:54;;;;;;;18.50;12.63;;;13.00;99.90;;;;;;5083103;28;20054;-59
2022/05/10 03:50:23;;;;;;;21.73;12.85;;;13.00;99.90;;;;;;5076522;28;20048;-59
2022/05/10 03:52:49;;;;;;;14.73;11.55;;;13.00;99.90;;;;;;5079527;28;20055;-59
2022/05/10 03:55:18;;;;;;;17.20;13.27;;;13.00;99.90;;;;;;5064993;28;20056;-59
2022/05/10 03:57:44;;;;;;;18.60;12.75;;;13.00;99.90;;;;;;5077844;28;20040;-59
2022/05/10 04:00:16;;;;;;;18.58;13.45;;;13.00;99.90;;;;;;5053822;28;20051;-59
2022/05/10 04:02:43;;;;;;;;;;;13.00;99.90;;;;;;5076596;28;20054;-59
2022/05/10 04:05:09;;;;;;;17.67;13.05;;;13.00;99.90;;;;;;5074001;28;20616;-59
2022/05/10 04:07:35;;;;;;;19.85;13.23;;;13.00;99.90;;;;;;5075860;28;20056;-59
2022/05/10 04:10:02;;;;;;;15.95;14.30;;;13.10;99.90;;;;;;5067123;28;20055;-60
2022/05/10 04:12:28;;;;;;;19.48;13.50;;;13.10;99.90;;;;;;5070657;28;20690;-60
2022/05/10 04:14:56;;;;;;;17.10;13.30;;;13.00;99.90;;;;;;5083443;28;20758;-60
2022/05/10 04:17:22;;;;;;;18.55;13.48;;;13.00;99.90;;;;;;5084505;28;20079;-59
2022/05/10 04:19:48;;;;;;;17.90;13.73;;;13.10;99.90;;;;;;5075445;28;20052;-60
2022/05/10 04:22:15;;;;;;;18.67;13.75;;;13.10;99.90;;;;;;5081283;28;20400;-60
2022/05/10 04:24:41;;;;;;;18.17;13.88;;;13.10;99.90;;;;;;5096542;28;20495;-60
2022/05/10 04:27:08;;;;;;;18.95;14.13;;;13.10;99.90;;;;;;5080313;28;20048;-60
2022/05/10 04:29:34;;;;;;;19.63;13.90;;;13.20;99.90;;;;;;5093051;28;20127;-57
2022/05/10 04:32:00;;;;;;;21.00;13.55;;;13.20;99.90;;;;;;5079269;28;20055;-57
2022/05/10 04:34:26;;;;;;;21.85;14.95;;;13.20;99.90;;;;;;5067421;28;20057;-57
2022/05/10 04:36:52;;;;;;;19.02;14.50;;;13.20;99.90;;;;;;5071349;28;20431;-57
2022/05/10 04:39:18;;;;;;;16.85;13.93;;;13.20;99.90;;;;;;5062146;28;20066;-58
2022/05/10 04:41:48;;;;;;;16.38;13.27;;;13.20;99.90;;;;;;5066903;28;20171;-57
2022/05/10 04:44:14;;;;;;;22.02;15.25;;;13.20;99.90;;;;;;5073952;28;20125;-56
2022/05/10 04:46:41;;;;;;;18.42;14.65;;;13.30;99.90;;;;;;5042273;28;20056;-57
2022/05/10 04:49:09;;;;;;;18.45;14.50;;;13.30;99.90;;;;;;5096504;28;20499;-57
2022/05/10 04:51:36;;;;;;;21.42;15.40;;;13.30;99.90;;;;;;5079753;28;20482;-57
2022/05/10 04:54:03;;;;;;;22.95;15.30;;;13.40;99.90;;;;;;5082196;28;20403;-57
2022/05/10 04:56:29;;;;;;;18.35;15.00;;;13.40;99.90;;;;;;5082911;28;20040;-58
2022/05/10 04:58:55;;;;;;;22.38;14.95;;;13.50;99.90;;;;;;5085052;28;20054;-57
2022/05/10 05:01:29;;;;;;;20.75;15.63;;;13.50;99.90;;;;;;5100908;28;20519;-57
2022/05/10 05:03:59;;;;;;;23.25;14.52;;;13.50;99.90;;;;;;5068141;28;20056;-57
2022/05/10 05:06:26;;;;;;;20.65;15.55;;;13.60;99.90;;;;;;5050559;28;20048;-57
2022/05/10 05:08:53;;;;;;;19.13;15.40;;;13.60;99.90;;;;;;5068389;28;20084;-59
2022/05/10 05:11:19;;;;;;;21.55;16.10;;;13.60;99.90;;;;;;5086786;28;20538;-59
2022/05/10 05:13:45;;;;;;;19.35;14.73;;;13.70;99.90;;;;;;5087037;28;20147;-60
2022/05/10 05:16:11;;;;;;;20.10;15.15;;;13.70;99.90;;;;;;5085001;28;20087;-57
2022/05/10 05:18:38;;;;;;;22.08;14.95;;;13.80;99.90;;;;;;5084563;28;20048;-57
2022/05/10 05:21:04;;;;;;;19.58;14.30;;;13.90;99.90;;;;;;5077120;28;20051;-57
2022/05/10 05:23:30;;;;;;;20.35;16.40;;;14.00;99.90;;;;;;5081220;28;20054;-58
2022/05/10 05:25:56;;;;;;;17.90;15.05;;;14.00;99.90;;;;;;5072436;28;20056;-58
2022/05/10 05:28:23;;;;;;;20.67;14.48;;;14.10;99.90;;;;;;5073973;28;20531;-58
2022/05/10 05:30:50;;;;;;;18.42;15.32;;;14.10;99.90;;;;;;5080542;28;20536;-57
2022/05/10 05:33:16;;;;;;;18.13;14.02;;;14.20;99.90;;;;;;5060603;28;20058;-57
2022/05/10 05:35:43;;;;;;;18.55;14.75;;;14.30;99.90;;;;;;5077080;28;20056;-57
2022/05/10 05:38:09;;;;;;;18.25;15.88;;;14.30;99.90;;;;;;5041005;28;20083;-57
2022/05/10 05:40:36;;;;;;;21.40;15.50;;;14.40;99.90;;;;;;5072075;28;20048;-56
2022/05/10 05:43:02;;;;;;;19.15;15.40;;;14.60;99.90;;;;;;5072359;28;20093;-57
2022/05/10 05:45:28;;;;;;;15.82;13.68;;;14.60;99.90;;;;;;5072356;28;20056;-58
2022/05/10 05:48:00;;;;;;;;;;;14.70;99.90;;;;;;5096540;27;20220;-58
2022/05/10 05:50:27;;;;;;;18.42;14.40;;;14.90;99.90;;;;;;5078338;28;20048;-57
2022/05/10 05:52:53;;;;;;;18.05;14.57;;;15.00;99.90;;;;;;5081397;28;20043;-58
2022/05/10 05:55:21;;;;;;;16.02;13.10;;;15.10;99.90;;;;;;5047390;28;20059;-58
2022/05/10 05:57:47;;;;;;;16.35;12.48;;;15.20;99.90;;;;;;5074465;28;20049;-57
2022/05/10 06:00:23;;;;;;;15.43;12.93;;;15.30;99.90;;;;;;5071200;28;20048;-58
2022/05/10 06:02:50;;;;;;;17.60;12.93;;;15.40;99.90;;;;;;5078585;28;20075;-57
2022/05/10 06:05:16;;;;;;;15.38;12.82;;;15.50;99.90;;;;;;5076107;28;20131;-58
2022/05/10 06:07:42;;;;;;;17.38;13.20;;;15.60;99.90;;;;;;5077894;28;20777;-57
2022/05/10 06:10:11;;;;;;;13.68;12.02;;;15.70;99.90;;;;;;5077344;28;20090;-57
2022/05/10 06:12:37;;;;;;;13.77;11.43;;;15.90;99.90;;;;;;5082318;28;20229;-57
2022/05/10 06:15:09;;;;;;;15.52;10.75;;;16.10;99.90;;;;;;5069154;28;20047;-57
2022/05/10 06:17:38;;;;;;;14.65;11.73;;;16.20;99.90;;;;;;5075563;28;20060;-57
2022/05/10 06:20:06;;;;;;;14.43;11.23;;;16.30;99.90;;;;;;5064394;28;20455;-57
2022/05/10 06:22:34;;;;;;;12.75;10.07;;;16.50;99.90;;;;;;5066750;28;20738;-57
2022/05/10 06:25:02;;;;;;;13.23;11.65;;;16.70;99.90;;;;;;5094744;28;20051;-57
2022/05/10 06:27:29;;;;;;;13.63;10.90;;;16.80;99.90;;;;;;5056614;28;20123;-57
2022/05/10 06:29:55;;;;;;;14.50;10.75;;;17.00;99.90;;;;;;5083247;28;20527;-59
2022/05/10 06:32:26;;;;;;;12.20;10.27;;;17.30;99.90;;;;;;5069253;28;20084;-63
2022/05/10 06:34:53;;;;;;;10.75;9.32;;;17.50;99.90;;;;;;5081604;28;20040;-59
2022/05/10 06:40:07;;;;;;;13.18;9.88;;;18.00;99.90;;;;;;5077570;28;20135;-61
2022/05/10 06:42:34;;;;;;;15.30;9.68;;;18.30;99.90;;;;;;5079853;28;20051;-58
2022/05/10 06:45:00;;;;;;;12.75;8.85;;;18.40;99.90;;;;;;5081551;28;20040;-59
2022/05/10 06:47:26;;;;;;;12.52;11.05;;;18.40;99.90;;;;;;5064970;28;20056;-59
2022/05/10 06:49:52;;;;;;;10.80;9.40;;;18.40;99.90;;;;;;5076911;28;20069;-59
2022/05/10 06:52:23;;;;;;;12.40;9.55;;;18.40;99.90;;;;;;5084023;28;20384;-60
2022/05/10 06:54:49;;;;;;;14.65;9.30;;;18.40;99.90;;;;;;5098833;27;20048;-59
2022/05/10 06:57:15;;;;;;;12.25;9.23;;;18.50;99.90;;;;;;5080157;28;20056;-59
2022/05/10 06:59:43;;;;;;;17.73;9.93;;;18.50;99.90;;;;;;5083567;28;20044;-59
2022/05/10 07:02:09;;;;;;;13.73;9.65;;;18.70;99.90;;;;;;5073162;28;20048;-59
2022/05/10 07:04:35;;;;;;;13.63;9.88;;;18.90;99.90;;;;;;5075523;28;20048;-59
2022/05/10 07:07:02;;;;;;;14.85;10.15;;;19.20;99.90;;;;;;5078138;28;20071;-59
2022/05/10 07:09:28;;;;;;;15.65;10.90;;;19.50;99.90;;;;;;5070046;28;20515;-59
2022/05/10 07:11:54;;;;;;;14.60;10.60;;;19.80;99.90;;;;;;5070363;28;20045;-59
2022/05/10 07:14:20;;;;;;;14.48;10.52;;;20.10;99.90;;;;;;5054183;28;20055;-59
2022/05/10 07:16:46;;;;;;;14.82;9.73;;;20.40;99.90;;;;;;5068313;28;20055;-59
2022/05/10 07:19:12;;;;;;;15.77;10.38;;;20.70;99.90;;;;;;5083290;28;20048;-58
2022/05/10 07:21:38;;;;;;;13.40;9.60;;;21.00;99.90;;;;;;5078910;28;20051;-58
2022/05/10 07:24:05;;;;;;;13.60;10.13;;;21.30;99.90;;;;;;5079882;28;20052;-58
2022/05/10 07:26:31;;;;;;;13.65;10.80;;;21.50;99.90;;;;;;5075012;28;20052;-58
2022/05/10 07:28:57;;;;;;;20.63;10.38;;;21.70;99.90;;;;;;5081513;28;20063;-58
2022/05/10 07:31:23;;;;;;;14.75;9.43;;;21.80;99.90;;;;;;5080781;28;20050;-59
2022/05/10 07:33:51;;;;;;;12.23;9.38;;;22.00;99.90;;;;;;5075233;28;20059;-61
2022/05/10 07:36:28;;;;;;;15.52;9.65;;;22.10;99.90;;;;;;5064047;28;20054;-61
2022/05/10 07:38:56;;;;;;;13.00;9.32;;;22.10;99.90;;;;;;5076072;28;20411;-61
2022/05/10 07:41:22;;;;;;;13.55;9.50;;;22.20;99.90;;;;;;5067808;28;20411;-59
2022/05/10 07:43:50;;;;;;;16.25;10.38;;;22.50;99.90;;;;;;5072000;28;20047;-60
2022/05/10 07:46:17;;;;;;;14.05;9.35;;;22.50;99.90;;;;;;5079185;28;20236;-60
2022/05/10 07:48:44;;;;;;;13.95;10.48;;;22.60;99.90;;;;;;5071408;28;20986;-60
2022/05/10 07:51:10;;;;;;;15.10;9.07;;;22.70;99.90;;;;;;5083149;28;20079;-64
2022/05/10 07:53:37;;;;;;;14.50;8.88;;;23.00;99.90;;;;;;5081273;28;20047;-57
2022/05/10 07:56:04;;;;;;;16.30;9.20;;;23.00;99.90;;;;;;5075668;28;20051;-57
2022/05/10 07:58:31;;;;;;;16.88;9.85;;;22.90;99.90;;;;;;5059391;28;20857;-57
2022/05/10 08:00:57;;;;;;;14.77;10.05;;;23.00;99.90;;;;;;5070523;28;20040;-57
2022/05/10 08:03:25;;;;;;;16.48;9.32;;;23.00;99.90;;;;;;5068227;28;20366;-63
2022/05/10 08:05:52;;;;;;;13.52;8.77;;;23.30;99.90;;;;;;5054759;28;20463;-64
2022/05/10 08:08:18;;;;;;;12.40;8.35;;;23.40;99.90;;;;;;5089278;28;20063;-60
2022/05/10 08:10:46;;;;;;;15.18;9.02;;;23.40;99.90;;;;;;5073241;28;20052;-61
2022/05/10 08:13:16;;;;;;;13.63;8.57;;;23.40;99.90;;;;;;5074131;28;20529;-62
2022/05/10 08:15:42;;;;;;;13.40;8.63;;;23.50;99.90;;;;;;5050370;28;20045;-60
2022/05/10 08:18:09;;;;;;;14.23;8.38;;;23.70;99.90;;;;;;5095439;28;20048;-54
2022/05/10 08:20:35;;;;;;;12.40;7.50;;;23.50;99.90;;;;;;5071231;28;20052;-55
2022/05/10 08:23:02;;;;;;;15.18;12.55;;;23.50;99.90;;;;;;5078962;28;20043;-59
2022/05/10 08:25:28;;;;;;;12.43;9.63;;;23.70;99.90;;;;;;5096063;27;20048;-58
2022/05/10 08:27:54;;;;;;;12.63;9.20;;;23.50;99.60;;;;;;5070300;28;20048;-59
2022/05/10 08:30:20;;;;;;;14.43;8.35;;;23.30;99.40;;;;;;5074237;28;20055;-58
2022/05/10 08:32:46;;;;;;;12.80;8.93;;;23.10;99.90;;;;;;5066997;28;20037;-58
2022/05/10 08:35:12;;;;;;;14.65;8.95;;;22.90;99.90;;;;;;5073490;28;20704;-61
2022/05/10 08:37:38;;;;;;;11.55;8.75;;;22.70;99.90;;;;;;5092114;28;20068;-60
2022/05/10 08:40:07;;;;;;;15.00;10.55;;;22.50;99.90;;;;;;5077978;28;20052;-61
2022/05/10 08:42:39;;;;;;;16.60;10.77;;;22.40;99.90;;;;;;5052817;28;20056;-61
2022/05/10 08:45:08;;;;;;;11.73;8.32;;;22.20;99.90;;;;;;5081433;28;20071;-61
2022/05/10 08:47:36;;;;;;;15.52;8.93;;;22.20;99.90;;;;;;5077154;28;20052;-61
2022/05/10 08:50:10;;;;;;;13.18;9.30;;;22.00;99.90;;;;;;5084654;28;20100;-61
2022/05/10 08:52:41;;;;;;;17.30;9.02;;;22.10;99.90;;;;;;5084133;28;20052;-60
2022/05/10 08:55:09;;;;;;;11.63;8.60;;;22.10;99.90;;;;;;5069474;28;20052;-62
2022/05/10 08:57:48;;;;;;;12.38;9.07;;;22.20;99.90;;;;;;5080552;28;20415;-61
2022/05/10 09:00:37;;;;;;;11.65;9.18;;;22.30;99.90;;;;;;5086033;28;20079;-61
2022/05/10 09:03:40;;;;;;;14.15;10.25;;;22.40;99.90;;;;;;5080431;28;20075;-58
2022/05/10 09:06:25;;;;;;;13.07;8.93;;;22.50;99.90;;;;;;5064806;28;20059;-59
2022/05/10 09:09:08;;;;;;;13.30;8.25;;;22.70;99.90;;;;;;5064716;28;20126;-58
2022/05/10 09:11:51;;;;;;;14.02;10.00;;;22.70;99.90;;;;;;5076550;28;20159;-59
2022/05/10 09:14:27;;;;;;;12.27;8.38;;;22.60;99.90;;;;;;5075646;28;20044;-59
2022/05/10 09:16:54;;;;;;;11.82;9.15;;;22.70;99.90;;;;;;5092634;28;20131;-60
2022/05/10 09:19:44;;;;;;;15.85;13.50;;;22.50;99.90;;;;;;5084360;28;20048;-61
2022/05/10 09:22:29;;;;;;;13.75;9.80;;;22.40;99.90;;;;;;5073791;28;20120;-60
2022/05/10 09:24:58;;;;;;;15.50;11.43;;;22.50;99.90;;;;;;5080185;28;20513;-60
2022/05/10 09:27:32;;;;;;;17.50;15.73;;;22.30;99.90;;;;;;5069334;28;20499;-56
2022/05/10 09:29:59;;;;;;;23.35;12.93;;;22.30;99.90;;;;;;5084340;28;20108;-59
2022/05/10 09:35:15;;;;;;;18.83;11.70;;;22.40;99.90;;;;;;5067537;28;20096;-58
2022/05/10 09:37:58;;;;;;;12.40;10.25;;;22.40;99.90;;;;;;5064370;28;20093;-58
2022/05/10 09:40:35;;;;;;;14.45;11.77;;;22.50;99.90;;;;;;5079222;28;20056;-58
2022/05/10 09:43:26;;;;;;;17.77;15.40;;;22.50;99.90;;;;;;5066169;28;20585;-59
2022/05/10 09:46:04;;;;;;;;;;;22.70;99.90;;;;;;5071077;28;20055;-59
2022/05/10 09:48:31;;;;;;;14.50;9.73;;;22.70;99.90;;;;;;5084410;28;19923;-61
2022/05/10 09:51:27;;;;;;;11.23;9.70;;;23.00;99.90;;;;;;5092262;28;20043;-61
2022/05/10 09:53:55;;;;;;;13.23;9.88;;;23.40;99.90;;;;;;5074128;28;20369;-61
2022/05/10 09:56:24;;;;;;;11.93;10.20;;;23.60;99.90;;;;;;5071424;28;20512;-60
2022/05/10 09:59:14;;;;;;;10.88;8.32;;;23.70;99.90;;;;;;5088687;28;20526;-62
2022/05/10 10:01:57;;;;;;;13.68;9.27;;;23.80;99.90;;;;;;5082390;28;20119;-61
2022/05/10 10:04:34;;;;;;;10.98;8.88;;;23.80;99.90;;;;;;5087524;28;20083;-61
2022/05/10 10:07:15;;;;;;;12.98;9.25;;;23.80;99.90;;;;;;5078646;28;20534;-61
2022/05/10 10:09:46;;;;;;;18.38;9.18;;;23.70;99.80;;;;;;5085906;28;20040;-61
2022/05/10 10:12:32;;;;;;;17.20;9.05;;;23.70;99.60;;;;;;5086377;28;20083;-61
2022/05/10 10:15:00;;;;;;;18.08;9.80;;;23.60;99.90;;;;;;5085422;28;20046;-61
2022/05/10 10:17:36;;;;;;;15.35;8.25;;;23.90;99.90;;;;;;5082999;28;20050;-61
2022/05/10 10:20:28;;;;;;;11.20;9.07;;;24.20;98.50;;;;;;5077790;28;20079;-62
2022/05/10 10:22:58;;;;;;;11.57;8.70;;;24.20;99.50;;;;;;5084242;28;20119;-61
2022/05/10 10:25:47;;;;;;;15.35;9.98;;;24.20;99.60;;;;;;5067998;28;20048;-62
2022/05/10 10:28:19;;;;;;;18.60;10.27;;;24.00;99.20;;;;;;5098289;28;20568;-62
2022/05/10 10:31:10;;;;;;;12.25;9.25;;;23.90;99.10;;;;;;5093201;27;20074;-62
2022/05/10 10:33:43;;;;;;;10.55;8.60;;;23.80;99.40;;;;;;5057695;28;20079;-62
2022/05/10 10:36:21;;;;;;;15.57;10.35;;;24.00;99.70;;;;;;5080816;28;20117;-62
2022/05/10 10:39:13;;;;;;;13.73;9.15;;;24.30;99.60;;;;;;5062342;28;20048;-62
2022/05/10 10:41:54;;;;;;;;;;;24.70;99.00;;;;;;5085185;28;20049;-62
2022/05/10 10:44:29;;;;;;;14.82;8.95;;;24.70;98.60;;;;;;5075009;28;20382;-61
2022/05/10 10:47:04;;;;;;;10.85;8.98;;;25.00;99.10;;;;;;5073760;28;20047;-62
2022/05/10 10:49:38;;;;;;;18.20;10.07;;;24.90;96.80;;;;;;5079672;28;20412;-62
2022/05/10 10:52:05;;;;;;;10.75;9.60;;;24.90;98.80;;;;;;5082952;28;20076;-60
2022/05/10 10:54:31;;;;;;;10.25;8.73;;;24.80;98.60;;;;;;5082449;28;20646;-60
2022/05/10 10:57:23;;;;;;;11.70;8.10;;;25.10;98.80;;;;;;5096417;28;21348;-60
2022/05/10 11:00:14;;;;;;;9.35;8.40;;;25.50;98.10;;;;;;5056589;28;20086;-60
2022/05/10 11:03:05;;;;;;;9.30;7.72;;;25.90;96.50;;;;;;5094246;28;20052;-58
2022/05/10 11:05:44;;;;;;;9.45;7.05;;;26.70;92.20;;;;;;5087785;28;20047;-59
2022/05/10 11:08:37;;;;;;;10.93;6.97;;;26.90;92.10;;;;;;5066806;28;20098;-58
2022/05/10 11:11:33;;;;;;;12.77;7.38;;;26.80;90.30;;;;;;5055688;28;20048;-59
2022/05/10 11:14:21;;;;;;;10.52;6.85;;;26.20;91.10;;;;;;5091689;28;20118;-59
2022/05/10 11:17:06;;;;;;;11.93;6.82;;;25.50;93.70;;;;;;5091706;28;20121;-59
2022/05/10 11:19:53;;;;;;;8.23;6.40;;;25.20;94.00;;;;;;5081382;28;20123;-59
2022/05/10 11:22:22;;;;;;;13.02;6.72;;;24.60;93.90;;;;;;5093229;28;20056;-59
2022/05/10 11:25:07;;;;;;;9.60;6.72;;;24.50;94.90;;;;;;5082469;28;20891;-59
2022/05/10 11:27:48;;;;;;;11.18;6.78;;;24.20;96.20;;;;;;5091771;28;20052;-59
2022/05/10 11:30:35;;;;;;;9.45;5.88;;;23.90;98.10;;;;;;5073462;28;20129;-59
2022/05/10 11:33:13;;;;;;;8.65;6.03;;;23.90;98.40;;;;;;5073458;28;20147;-59
2022/05/10 11:35:56;;;;;;;8.63;6.50;;;23.80;98.40;;;;;;5063402;28;20921;-59
2022/05/10 11:38:48;;;;;;;12.57;7.00;;;23.70;98.90;;;;;;5071391;28;20512;-59
2022/05/10 11:41:40;;;;;;;12.32;6.00;;;23.70;97.80;;;;;;5068786;28;20625;-59
2022/05/10 11:44:37;;;;;;;9.70;5.38;;;23.90;97.50;;;;;;5064392;28;20052;-58
2022/05/10 11:47:12;;;;;;;13.48;6.10;;;24.30;94.90;;;;;;5082819;28;20454;-59
2022/05/10 11:49:58;;;;;;;10.70;6.43;;;24.90;93.50;;;;;;5073595;28;20123;-60
2022/05/10 11:52:47;;;;;;;13.38;6.03;;;25.20;90.10;;;;;;5084051;28;20040;-61
2022/05/10 11:55:51;;;;;;;13.18;5.93;;;25.30;91.00;;;;;;5053018;28;20373;-61
2022/05/10 11:58:23;;;;;;;9.90;6.55;;;25.40;87.50;;;;;;5070439;28;20064;-61
2022/05/10 12:00:55;;;;;;;11.50;5.68;;;25.70;90.30;;;;;;5079362;28;20040;-61
2022/05/10 12:03:43;;;;;;;11.55;6.07;;;25.80;86.50;;;;;;5080667;28;20088;-61
2022/05/10 12:06:25;;;;;;;8.68;5.85;;;25.70;84.50;;;;;;5090416;28;20040;-61
2022/05/10 12:09:00;;;;;;;15.20;6.75;;;25.40;84.50;;;;;;5076709;28;20111;-61
2022/05/10 12:11:28;;;;;;;14.43;5.93;;;25.10;83.80;;;;;;5069972;28;20098;-61
2022/05/10 12:22:52;;;;;;;10.38;5.68;;;25.20;86.60;;;;;;5094172;28;20047;-60
2022/05/10 12:25:44;;;;;;;31.05;7.40;;;25.10;90.60;;;;;;5075422;28;20040;-60
2022/05/10 12:28:30;;;;;;;14.52;5.88;;;25.10;84.10;;;;;;5099338;28;20491;-61
2022/05/10 12:30:57;;;;;;;13.27;6.40;;;24.90;87.20;;;;;;5072894;28;20101;-59
2022/05/10 12:33:35;;;;;;;11.55;5.40;;;25.30;84.20;;;;;;5074648;28;20043;-59
2022/05/10 12:36:07;;;;;;;10.65;5.15;;;25.80;82.90;;;;;;5080074;28;20075;-59
2022/05/10 12:38:54;;;;;;;8.75;5.65;;;26.20;85.60;;;;;;5074237;28;20135;-59
2022/05/10 12:41:47;;;;;;;10.57;5.25;;;25.80;81.80;;;;;;5073137;28;20092;-59
2022/05/10 12:44:34;;;;;;;14.80;4.93;;;25.70;85.00;;;;;;5075055;28;20053;-61
2022/05/10 12:47:21;;;;;;;8.10;5.10;;;25.80;83.50;;;;;;5086325;28;20052;-60
2022/05/10 12:50:13;;;;;;;13.35;5.72;;;25.80;81.30;;;;;;5080568;28;20582;-59
2022/05/10 12:52:47;;;;;;;8.95;5.40;;;25.90;83.60;;;;;;5071754;28;20058;-60
2022/05/10 12:55:21;;;;;;;7.38;4.85;;;25.90;82.60;;;;;;5056474;28;20161;-59
2022/05/10 12:57:57;;;;;;;7.95;4.20;;;26.30;81.50;;;;;;5063449;28;20049;-59
2022/05/10 13:00:33;;;;;;;8.98;4.40;;;26.40;79.30;;;;;;5065616;28;20044;-59
2022/05/10 13:03:07;;;;;;;13.63;4.60;;;26.20;80.20;;;;;;5070678;28;20356;-60
2022/05/10 13:05:54;;;;;;;8.85;4.78;;;26.00;83.60;;;;;;5073217;28;20518;-60
2022/05/10 13:08:50;;;;;;;10.43;5.38;;;25.70;85.20;;;;;;5083879;28;20131;-59
2022/05/10 13:11:21;;;;;;;11.38;7.25;;;25.50;87.50;;;;;;5072759;28;20104;-59
2022/05/10 13:13:52;;;;;;;17.00;8.68;;;25.20;87.70;;;;;;5075644;28;20051;-59
2022/05/10 13:16:20;;;;;;;10.63;4.57;;;25.10;88.50;;;;;;5087113;28;20420;-59
2022/05/10 13:18:49;;;;;;;12.48;6.50;;;25.00;91.90;;;;;;5074039;28;20051;-59
2022/05/10 13:21:29;;;;;;;10.30;6.70;;;24.70;91.80;;;;;;5080394;28;20944;-61
2022/05/10 13:24:00;;;;;;;10.83;5.90;;;24.60;92.00;;;;;;5078979;28;20672;-59